Time;durP1;ratioP1;P1;durP2;ratioP2;P2;SDS_P1;SDS_P2;PMS_P1;PMS_P2;Temp;Humidity;BMP_temperature;BMP_pressure;BME280_temperature;BME280_humidity;BME280_pressure;Samples;Min_cycle;Max_cycle;Signal;HPM_P1;HPM_P2
2022/10/06 00:00:53;;;;;;;4.00;0.90;;;13.80;99.90;;;;;;4997164;28;20173;-62
2022/10/06 00:03:23;;;;;;;2.88;1.10;;;13.80;99.90;;;;;;5011882;28;20038;-62
2022/10/06 00:05:50;;;;;;;4.93;1.20;;;13.80;99.90;;;;;;5006513;28;20033;-62
2022/10/06 00:08:17;;;;;;;3.90;1.08;;;13.80;99.90;;;;;;5011707;28;20049;-62
2022/10/06 00:10:43;;;;;;;9.15;1.40;;;13.80;99.90;;;;;;5003560;28;20038;-62
2022/10/06 00:13:08;;;;;;;6.13;1.23;;;13.80;99.90;;;;;;5009074;28;20037;-62
2022/10/06 00:15:34;;;;;;;7.25;1.50;;;13.70;99.90;;;;;;5007941;28;21117;-65
2022/10/06 00:18:00;;;;;;;4.93;1.13;;;13.70;99.90;;;;;;5014585;28;20111;-62
2022/10/06 00:20:27;;;;;;;3.90;1.25;;;13.70;99.90;;;;;;4997980;28;20072;-62
2022/10/06 00:22:53;;;;;;;8.50;1.10;;;13.70;99.90;;;;;;5012867;28;20057;-63
2022/10/06 00:25:20;;;;;;;5.80;1.35;;;13.60;99.90;;;;;;5007696;28;20398;-62
2022/10/06 00:27:49;;;;;;;4.25;1.40;;;13.60;99.90;;;;;;5006198;28;20034;-62
2022/10/06 00:30:26;;;;;;;7.53;1.30;;;13.60;99.90;;;;;;5001937;28;20042;-63
2022/10/06 00:32:57;;;;;;;5.68;1.17;;;13.50;99.90;;;;;;5004723;28;20125;-62
2022/10/06 00:35:28;;;;;;;4.13;1.30;;;13.50;99.90;;;;;;5001355;28;20042;-62
2022/10/06 00:37:54;;;;;;;8.27;1.63;;;13.50;99.90;;;;;;5003879;28;20124;-62
2022/10/06 00:40:21;;;;;;;4.82;1.20;;;13.50;99.90;;;;;;5001385;28;20030;-62
2022/10/06 00:43:18;;;;;;;4.05;1.10;;;13.40;99.90;;;;;;5005774;28;20038;-62
2022/10/06 00:45:47;;;;;;;5.72;1.55;;;13.50;99.90;;;;;;4976991;28;20042;-62
2022/10/06 00:48:21;;;;;;;7.55;1.73;;;13.40;99.90;;;;;;5010799;28;20049;-62
2022/10/06 00:50:47;;;;;;;4.20;1.10;;;13.50;99.90;;;;;;5007892;28;20038;-62
2022/10/06 00:53:14;;;;;;;5.35;1.27;;;13.40;99.90;;;;;;5002383;28;20144;-62
2022/10/06 00:55:40;;;;;;;5.82;1.20;;;13.40;99.90;;;;;;5003250;28;20033;-62
2022/10/06 00:58:06;;;;;;;6.60;1.42;;;13.50;99.90;;;;;;5009310;28;20379;-64
2022/10/06 01:00:32;;;;;;;7.68;1.48;;;13.50;99.90;;;;;;5007793;28;20034;-62
2022/10/06 01:03:21;;;;;;;4.85;1.40;;;13.50;99.90;;;;;;5005571;28;20486;-63
2022/10/06 01:05:49;;;;;;;4.50;1.45;;;13.40;99.90;;;;;;4972771;28;20149;-62
2022/10/06 01:08:16;;;;;;;6.32;1.27;;;13.40;99.90;;;;;;5005859;28;20773;-62
2022/10/06 01:10:42;;;;;;;4.32;1.40;;;13.40;99.90;;;;;;5008484;28;20141;-63
2022/10/06 01:13:09;;;;;;;7.15;1.42;;;13.40;99.90;;;;;;5007115;28;20164;-62
2022/10/06 01:15:42;;;;;;;6.65;1.52;;;13.40;99.90;;;;;;5003257;28;20486;-62
2022/10/06 01:18:12;;;;;;;6.53;1.25;;;13.40;99.90;;;;;;5008407;28;20096;-64
2022/10/06 01:20:48;;;;;;;6.43;1.60;;;13.40;99.90;;;;;;4996318;28;20425;-63
2022/10/06 01:23:14;;;;;;;7.38;1.40;;;13.30;99.90;;;;;;5004672;28;20081;-62
2022/10/06 01:25:41;;;;;;;5.80;1.58;;;13.30;99.90;;;;;;5009294;28;20124;-64
2022/10/06 01:28:08;;;;;;;6.03;1.60;;;13.30;99.90;;;;;;5005403;28;20077;-63
2022/10/06 01:30:50;;;;;;;4.40;1.52;;;13.30;99.90;;;;;;5008801;28;20466;-62
2022/10/06 01:33:16;;;;;;;6.22;1.70;;;13.20;99.90;;;;;;5007900;28;20061;-62
2022/10/06 01:35:47;;;;;;;5.68;1.30;;;13.20;99.90;;;;;;5012960;28;20132;-62
2022/10/06 01:38:12;;;;;;;5.00;1.50;;;13.20;99.90;;;;;;5007329;28;20135;-64
2022/10/06 01:40:38;;;;;;;5.97;1.55;;;13.20;99.90;;;;;;5010725;28;20065;-62
2022/10/06 01:43:03;;;;;;;7.30;1.88;;;13.20;99.90;;;;;;5007968;28;20039;-62
2022/10/06 01:45:29;;;;;;;8.68;1.77;;;13.20;99.90;;;;;;4994778;28;20044;-62
2022/10/06 01:47:56;;;;;;;4.30;1.40;;;13.10;99.90;;;;;;5005910;28;20440;-64
2022/10/06 01:50:21;;;;;;;8.65;1.88;;;13.10;99.90;;;;;;5005036;28;20042;-62
2022/10/06 01:52:47;;;;;;;6.68;1.50;;;13.10;99.90;;;;;;5010442;28;20041;-62
2022/10/06 01:55:13;;;;;;;6.80;1.50;;;13.10;99.90;;;;;;4994133;28;20478;-65
2022/10/06 01:57:40;;;;;;;6.38;1.70;;;13.10;99.90;;;;;;5007821;28;20038;-62
2022/10/06 02:00:06;;;;;;;7.85;1.45;;;13.10;99.90;;;;;;5006711;28;20069;-62
2022/10/06 02:02:32;;;;;;;5.50;1.63;;;13.00;99.90;;;;;;5011069;28;20092;-63
2022/10/06 02:04:58;;;;;;;8.05;1.60;;;13.00;99.90;;;;;;5003840;28;20494;-62
2022/10/06 02:07:23;;;;;;;8.90;2.00;;;13.00;99.90;;;;;;5000214;28;20104;-62
2022/10/06 02:09:49;;;;;;;8.38;1.63;;;13.00;99.90;;;;;;5003014;28;20414;-63
2022/10/06 02:12:15;;;;;;;10.55;2.05;;;13.00;99.90;;;;;;5005342;28;20219;-62
2022/10/06 02:14:41;;;;;;;8.32;1.75;;;12.90;99.90;;;;;;5009535;28;20076;-62
2022/10/06 02:17:07;;;;;;;8.18;1.67;;;12.90;99.90;;;;;;5002668;28;20557;-62
2022/10/06 02:19:34;;;;;;;8.77;1.90;;;12.90;99.90;;;;;;5009608;28;20515;-62
2022/10/06 02:21:59;;;;;;;5.95;2.17;;;12.90;99.90;;;;;;5011312;28;20138;-62
2022/10/06 02:24:25;;;;;;;6.40;1.77;;;12.90;99.90;;;;;;4998922;28;20652;-62
2022/10/06 02:26:52;;;;;;;6.78;1.52;;;12.90;99.90;;;;;;4995512;28;20520;-62
2022/10/06 02:29:19;;;;;;;8.68;1.73;;;12.80;99.90;;;;;;5007666;28;20037;-64
2022/10/06 02:31:45;;;;;;;7.22;1.88;;;12.80;99.90;;;;;;4990709;28;20050;-62
2022/10/06 02:34:11;;;;;;;7.18;1.65;;;12.80;99.90;;;;;;4986034;28;20517;-62
2022/10/06 02:36:36;;;;;;;8.85;1.75;;;12.70;99.90;;;;;;5010072;28;20026;-62
2022/10/06 02:39:03;;;;;;;8.15;2.20;;;12.70;99.90;;;;;;5003291;28;20034;-62
2022/10/06 02:41:29;;;;;;;6.25;1.80;;;12.70;99.90;;;;;;4987476;28;20049;-62
2022/10/06 02:43:55;;;;;;;8.20;1.80;;;12.70;99.90;;;;;;5003638;28;20417;-62
2022/10/06 02:46:22;;;;;;;6.60;1.60;;;12.70;99.90;;;;;;5006269;28;20033;-62
2022/10/06 02:48:49;;;;;;;11.98;2.03;;;12.70;99.90;;;;;;5012860;28;20117;-62
2022/10/06 02:51:19;;;;;;;9.82;2.15;;;12.70;99.90;;;;;;4994208;28;20049;-64
2022/10/06 02:53:47;;;;;;;8.40;1.70;;;12.60;99.90;;;;;;5010233;28;20137;-62
2022/10/06 02:56:21;;;;;;;11.57;2.03;;;12.60;99.90;;;;;;5010284;28;20042;-62
2022/10/06 02:58:48;;;;;;;8.52;1.75;;;12.50;99.90;;;;;;5008627;28;20363;-62
2022/10/06 03:01:22;;;;;;;9.57;1.85;;;12.60;99.90;;;;;;5010204;28;20108;-62
2022/10/06 03:03:48;;;;;;;7.75;2.08;;;12.50;99.90;;;;;;5004366;28;20045;-62
2022/10/06 03:06:22;;;;;;;8.23;1.92;;;12.40;99.90;;;;;;5010467;28;20482;-62
2022/10/06 03:08:59;;;;;;;6.70;1.85;;;12.40;99.90;;;;;;5005287;28;20520;-62
2022/10/06 03:11:27;;;;;;;8.88;1.75;;;12.40;99.90;;;;;;5000742;28;20065;-62
2022/10/06 03:13:53;;;;;;;7.63;1.50;;;12.30;99.90;;;;;;5005280;28;20108;-62
2022/10/06 03:16:22;;;;;;;9.25;1.85;;;12.30;99.90;;;;;;5009187;28;20390;-62
2022/10/06 03:18:49;;;;;;;10.60;1.77;;;12.30;99.90;;;;;;5008315;28;20044;-62
2022/10/06 03:21:16;;;;;;;11.30;1.70;;;12.30;99.90;;;;;;4987837;28;20042;-62
2022/10/06 03:23:43;;;;;;;9.00;1.70;;;12.20;99.90;;;;;;5009649;28;20401;-62
2022/10/06 03:26:10;;;;;;;9.23;2.05;;;12.20;99.90;;;;;;5009765;28;20049;-62
2022/10/06 03:28:36;;;;;;;9.85;1.80;;;12.20;99.90;;;;;;5015846;28;20370;-63
2022/10/06 03:31:02;;;;;;;11.10;2.47;;;12.10;99.90;;;;;;5005511;28;20044;-64
2022/10/06 03:33:29;;;;;;;7.90;1.58;;;12.10;99.90;;;;;;5003113;28;20494;-62
2022/10/06 03:36:03;;;;;;;9.82;1.77;;;12.10;99.90;;;;;;5008074;28;20026;-62
2022/10/06 03:38:32;;;;;;;8.13;1.80;;;12.10;99.90;;;;;;5001592;28;20034;-63
2022/10/06 03:41:19;;;;;;;8.35;1.58;;;12.10;99.90;;;;;;5009376;28;20034;-64
2022/10/06 03:43:46;;;;;;;8.13;1.85;;;12.00;99.90;;;;;;5010340;28;20497;-65
2022/10/06 03:46:15;;;;;;;11.55;1.85;;;11.90;99.90;;;;;;5008495;28;20041;-62
2022/10/06 03:48:40;;;;;;;10.63;2.20;;;12.00;99.90;;;;;;4998581;28;20038;-62
2022/10/06 03:51:10;;;;;;;12.05;1.83;;;11.90;99.90;;;;;;4999910;28;20048;-63
2022/10/06 03:53:36;;;;;;;10.45;1.92;;;11.90;99.90;;;;;;5003509;28;20182;-62
2022/10/06 03:56:13;;;;;;;7.57;1.30;;;11.90;99.90;;;;;;5005043;28;20329;-62
2022/10/06 03:58:42;;;;;;;10.20;1.80;;;11.80;99.90;;;;;;5005977;28;20041;-62
2022/10/06 04:01:14;;;;;;;8.82;2.17;;;11.80;99.90;;;;;;5006572;28;20042;-62
2022/10/06 04:03:40;;;;;;;7.70;1.60;;;11.80;99.90;;;;;;5002503;28;20121;-62
2022/10/06 04:06:08;;;;;;;8.25;2.15;;;11.80;99.90;;;;;;5003189;28;20120;-62
2022/10/06 04:08:34;;;;;;;7.00;1.70;;;11.80;99.90;;;;;;5000415;28;20048;-62
2022/10/06 04:11:08;;;;;;;10.43;2.10;;;11.80;99.90;;;;;;4986511;28;20070;-62
2022/10/06 04:13:33;;;;;;;8.32;1.65;;;11.70;99.90;;;;;;4999514;28;20402;-62
2022/10/06 04:16:15;;;;;;;7.20;1.65;;;11.70;99.90;;;;;;4998616;28;20034;-62
2022/10/06 04:18:42;;;;;;;12.30;1.70;;;11.60;99.90;;;;;;5005587;28;20134;-64
2022/10/06 04:21:08;;;;;;;8.60;2.20;;;11.70;99.90;;;;;;4998833;28;20110;-62
2022/10/06 04:23:35;;;;;;;9.75;1.73;;;11.60;99.90;;;;;;4998700;28;20041;-63
2022/10/06 04:26:04;;;;;;;11.40;1.70;;;11.60;99.90;;;;;;4998253;28;20042;-62
2022/10/06 04:28:30;;;;;;;6.70;1.60;;;11.60;99.90;;;;;;4999075;28;20048;-63
2022/10/06 04:30:59;;;;;;;10.52;1.50;;;11.60;99.90;;;;;;4997932;28;20034;-63
2022/10/06 04:33:25;;;;;;;11.88;2.00;;;11.60;99.90;;;;;;4996323;28;20367;-62
2022/10/06 04:36:05;;;;;;;8.25;1.50;;;11.50;99.90;;;;;;4998759;28;20120;-62
2022/10/06 04:38:33;;;;;;;8.98;2.17;;;11.50;99.90;;;;;;4996761;28;20038;-62
2022/10/06 04:41:12;;;;;;;9.60;2.25;;;11.50;99.90;;;;;;5004808;28;20503;-62
2022/10/06 04:43:37;;;;;;;8.68;1.67;;;11.40;99.90;;;;;;4997468;28;20566;-63
2022/10/06 04:46:04;;;;;;;6.85;1.77;;;11.40;99.90;;;;;;5007491;28;20121;-62
2022/10/06 04:48:30;;;;;;;10.25;2.28;;;11.40;99.90;;;;;;4997048;28;20030;-62
2022/10/06 04:51:01;;;;;;;9.52;1.77;;;11.30;99.90;;;;;;5004375;28;20045;-64
2022/10/06 04:53:28;;;;;;;7.85;1.70;;;11.40;99.90;;;;;;5001851;28;20046;-62
2022/10/06 04:56:04;;;;;;;10.32;1.92;;;11.30;99.90;;;;;;4999028;28;20065;-63
2022/10/06 04:58:32;;;;;;;6.97;1.80;;;11.30;99.90;;;;;;5008788;28;20486;-62
2022/10/06 05:00:58;;;;;;;6.15;1.40;;;11.30;99.90;;;;;;4995987;28;20038;-62
2022/10/06 05:03:24;;;;;;;6.63;1.60;;;11.30;99.90;;;;;;5009934;28;20121;-64
2022/10/06 05:05:50;;;;;;;8.98;1.95;;;11.30;99.90;;;;;;4996668;28;21874;-63
2022/10/06 05:08:16;;;;;;;6.30;1.65;;;11.30;99.90;;;;;;5003553;28;20084;-62
2022/10/06 05:10:41;;;;;;;8.77;1.35;;;11.30;99.90;;;;;;5008190;28;20073;-62
2022/10/06 05:13:11;;;;;;;9.40;1.67;;;11.20;99.90;;;;;;5009113;28;20046;-62
2022/10/06 05:15:38;;;;;;;9.63;1.90;;;11.20;99.90;;;;;;5008683;28;20072;-62
2022/10/06 05:18:04;;;;;;;12.55;1.90;;;11.20;99.90;;;;;;5008567;28;20074;-62
2022/10/06 05:20:29;;;;;;;8.27;1.80;;;11.20;99.90;;;;;;5001525;28;20038;-62
2022/10/06 05:22:55;;;;;;;10.63;2.05;;;11.20;99.90;;;;;;5001616;28;20042;-62
2022/10/06 05:25:20;;;;;;;13.88;2.22;;;11.20;99.90;;;;;;5012349;28;20068;-62
2022/10/06 05:27:46;;;;;;;11.35;1.65;;;11.20;99.90;;;;;;4995335;28;20033;-62
2022/10/06 05:30:12;;;;;;;12.30;2.33;;;11.20;99.90;;;;;;4995040;28;20065;-62
2022/10/06 05:32:37;;;;;;;7.32;1.63;;;11.20;99.90;;;;;;4992353;28;20030;-62
2022/10/06 05:35:03;;;;;;;8.43;2.42;;;11.20;99.90;;;;;;4993109;28;20044;-62
2022/10/06 05:37:29;;;;;;;10.25;1.98;;;11.20;99.90;;;;;;4998102;28;20101;-62
2022/10/06 05:39:54;;;;;;;11.73;2.13;;;11.20;99.90;;;;;;5003377;28;20038;-62
2022/10/06 05:42:20;;;;;;;9.63;2.15;;;11.10;99.90;;;;;;5007513;28;20108;-62
2022/10/06 05:44:45;;;;;;;12.02;2.00;;;11.20;99.90;;;;;;4993211;28;20046;-63
2022/10/06 05:47:11;;;;;;;8.88;1.60;;;11.20;99.90;;;;;;5001319;28;20495;-62
2022/10/06 05:49:36;;;;;;;7.43;1.70;;;11.20;99.90;;;;;;5004008;28;20041;-62
2022/10/06 05:52:02;;;;;;;7.25;1.50;;;11.20;99.90;;;;;;5002943;28;20409;-62
2022/10/06 05:54:28;;;;;;;8.45;1.90;;;11.20;99.90;;;;;;5006814;28;20554;-64
2022/10/06 05:56:53;;;;;;;7.40;1.70;;;11.20;99.90;;;;;;4992342;28;20033;-61
2022/10/06 05:59:19;;;;;;;11.32;2.22;;;11.20;99.90;;;;;;5000664;28;20084;-62
2022/10/06 06:01:45;;;;;;;11.07;1.88;;;11.10;99.90;;;;;;5009313;28;20041;-62
2022/10/06 06:04:12;;;;;;;11.23;1.98;;;11.20;99.90;;;;;;5007139;28;20455;-62
2022/10/06 06:06:40;;;;;;;4.70;1.60;;;11.20;99.90;;;;;;5000184;28;20038;-62
2022/10/06 06:09:06;;;;;;;8.95;2.15;;;11.20;99.90;;;;;;5003109;28;20045;-62
2022/10/06 06:11:34;;;;;;;9.93;2.30;;;11.20;99.90;;;;;;5011303;28;20121;-65
2022/10/06 06:14:02;;;;;;;7.50;1.77;;;11.10;99.90;;;;;;4997285;28;20038;-62
2022/10/06 06:16:31;;;;;;;15.68;2.83;;;11.20;99.90;;;;;;5010045;28;20041;-62
2022/10/06 06:18:58;;;;;;;9.20;1.80;;;11.10;99.90;;;;;;5005766;28;20096;-62
2022/10/06 06:21:24;;;;;;;13.88;2.60;;;11.10;99.90;;;;;;5009307;28;20045;-62
2022/10/06 06:23:51;;;;;;;13.88;2.45;;;11.10;99.90;;;;;;5014651;28;20198;-62
2022/10/06 06:26:28;;;;;;;11.75;2.20;;;11.20;99.90;;;;;;5006802;28;20232;-64
2022/10/06 06:29:00;;;;;;;10.82;1.77;;;11.20;99.90;;;;;;4985663;28;20050;-62
2022/10/06 06:31:27;;;;;;;10.77;1.88;;;11.20;99.90;;;;;;5001362;28;20548;-62
2022/10/06 06:33:55;;;;;;;8.07;2.15;;;11.10;99.90;;;;;;5006955;28;20118;-63
2022/10/06 06:36:28;;;;;;;10.00;2.00;;;11.10;99.90;;;;;;5020233;28;20319;-62
2022/10/06 06:38:56;;;;;;;12.00;2.00;;;11.20;99.90;;;;;;5010147;28;20524;-62
2022/10/06 06:41:27;;;;;;;7.22;1.92;;;11.20;99.90;;;;;;5000343;28;20034;-62
2022/10/06 06:43:52;;;;;;;9.27;1.83;;;11.20;99.90;;;;;;5005433;28;20046;-62
2022/10/06 06:46:23;;;;;;;13.13;2.25;;;11.20;99.90;;;;;;5003418;28;20045;-63
2022/10/06 06:48:50;;;;;;;12.50;2.42;;;11.20;99.90;;;;;;5001192;28;20038;-62
2022/10/06 06:51:16;;;;;;;14.50;2.20;;;11.30;99.90;;;;;;5000984;28;20576;-62
2022/10/06 06:53:41;;;;;;;9.20;1.60;;;11.30;99.90;;;;;;5002539;28;20241;-62
2022/10/06 06:56:08;;;;;;;11.40;2.17;;;11.30;99.90;;;;;;5003037;28;20560;-64
2022/10/06 06:58:34;;;;;;;9.95;2.50;;;11.30;99.90;;;;;;4985912;28;20199;-63
2022/10/06 07:01:12;;;;;;;7.85;2.20;;;11.30;99.90;;;;;;5006333;28;20109;-62
2022/10/06 07:03:42;;;;;;;10.93;1.75;;;11.40;99.90;;;;;;5003656;28;20077;-62
2022/10/06 07:06:09;;;;;;;8.15;1.67;;;11.40;99.90;;;;;;4995841;28;20065;-64
2022/10/06 07:08:43;;;;;;;9.43;2.13;;;11.40;99.90;;;;;;4985740;28;20076;-62
2022/10/06 07:11:18;;;;;;;11.38;2.03;;;11.40;99.90;;;;;;4998345;28;20049;-62
2022/10/06 07:13:45;;;;;;;7.20;1.52;;;11.50;99.90;;;;;;5000726;28;20415;-63
2022/10/06 07:27:26;;;;;;;6.72;1.77;;;11.60;99.90;;;;;;4993616;28;20057;-62
2022/10/06 07:29:53;;;;;;;11.27;1.80;;;11.70;99.90;;;;;;5011188;28;20049;-62
2022/10/06 07:32:29;;;;;;;13.73;2.00;;;11.70;99.90;;;;;;4993388;28;20387;-62
2022/10/06 07:34:57;;;;;;;10.63;2.20;;;11.70;99.90;;;;;;5003122;28;20050;-62
2022/10/06 07:37:23;;;;;;;11.95;2.10;;;11.80;99.90;;;;;;5002863;28;20414;-65
2022/10/06 07:39:48;;;;;;;17.65;2.63;;;11.80;99.90;;;;;;4996302;28;20034;-62
2022/10/06 07:42:16;;;;;;;13.63;2.55;;;11.80;99.90;;;;;;4992646;28;20027;-62
2022/10/06 07:44:42;;;;;;;14.23;2.10;;;11.80;99.90;;;;;;4992281;28;20065;-62
2022/10/06 07:47:08;;;;;;;14.00;2.10;;;11.90;99.90;;;;;;4994319;28;20038;-62
2022/10/06 07:49:34;;;;;;;13.48;2.05;;;11.90;99.90;;;;;;4991676;28;20084;-63
2022/10/06 07:52:01;;;;;;;10.15;2.10;;;12.10;99.90;;;;;;4992173;28;20042;-62
2022/10/06 07:54:27;;;;;;;16.92;2.38;;;12.10;99.90;;;;;;4993261;28;20045;-62
2022/10/06 07:56:54;;;;;;;14.93;2.20;;;12.10;99.90;;;;;;4993417;28;20088;-64
2022/10/06 07:59:20;;;;;;;12.32;2.17;;;12.20;99.90;;;;;;4995001;28;20034;-62
2022/10/06 08:01:46;;;;;;;10.52;2.10;;;12.20;99.90;;;;;;4992846;28;20034;-63
2022/10/06 08:04:12;;;;;;;13.13;2.15;;;12.30;99.90;;;;;;4992639;28;20411;-62
2022/10/06 08:06:38;;;;;;;11.70;1.67;;;12.40;99.90;;;;;;4994145;28;20035;-62
2022/10/06 08:09:04;;;;;;;9.73;2.00;;;12.40;99.90;;;;;;4988402;28;20057;-62
2022/10/06 08:11:30;;;;;;;14.45;2.55;;;12.40;99.90;;;;;;4994854;28;20512;-62
2022/10/06 08:13:57;;;;;;;10.40;2.05;;;12.50;99.90;;;;;;4994547;28;20387;-62
2022/10/06 08:16:28;;;;;;;10.07;2.38;;;12.50;99.90;;;;;;4992632;28;20049;-62
2022/10/06 08:18:55;;;;;;;10.48;1.85;;;12.50;99.90;;;;;;4987092;28;20046;-63
2022/10/06 08:21:27;;;;;;;13.00;2.58;;;12.60;99.90;;;;;;4991784;28;20034;-63
2022/10/06 08:23:53;;;;;;;17.45;2.65;;;12.60;99.90;;;;;;4989050;28;20131;-63
2022/10/06 08:26:20;;;;;;;9.07;2.05;;;12.70;99.90;;;;;;4992176;28;20084;-62
2022/10/06 08:28:48;;;;;;;12.02;2.05;;;12.70;99.90;;;;;;4996130;28;20057;-63
2022/10/06 08:31:16;;;;;;;11.50;2.03;;;12.70;99.90;;;;;;4994543;28;20038;-65
2022/10/06 08:33:43;;;;;;;10.73;1.98;;;12.80;99.90;;;;;;4984898;28;20042;-62
2022/10/06 08:36:15;;;;;;;11.70;2.50;;;12.80;99.90;;;;;;4987025;28;20041;-62
2022/10/06 08:38:41;;;;;;;9.77;2.45;;;12.90;99.90;;;;;;5004492;28;20045;-62
2022/10/06 08:41:17;;;;;;;10.68;2.47;;;12.90;99.90;;;;;;5003506;28;20108;-63
2022/10/06 08:43:48;;;;;;;16.75;3.65;;;13.00;99.90;;;;;;5002473;28;20038;-63
2022/10/06 08:46:15;;;;;;;7.30;2.08;;;13.00;99.90;;;;;;4996802;28;20038;-62
2022/10/06 08:48:41;;;;;;;10.93;2.45;;;13.10;99.90;;;;;;4989990;28;20426;-63
2022/10/06 08:51:21;;;;;;;10.32;2.00;;;13.10;99.90;;;;;;5004322;28;20046;-62
2022/10/06 08:54:12;;;;;;;7.82;1.98;;;13.10;99.90;;;;;;5010202;28;20064;-62
2022/10/06 08:57:04;;;;;;;18.23;2.85;;;13.20;99.90;;;;;;4973415;28;20383;-62
2022/10/06 08:59:34;;;;;;;13.30;2.75;;;13.20;99.90;;;;;;5010049;28;20402;-62
2022/10/06 09:02:04;;;;;;;10.80;2.08;;;13.20;99.90;;;;;;5010216;28;20042;-62
2022/10/06 09:04:31;;;;;;;5.55;1.52;;;13.30;99.90;;;;;;4995054;28;20050;-62
2022/10/06 09:06:58;;;;;;;9.20;1.90;;;13.40;99.90;;;;;;5004009;28;20061;-62
2022/10/06 09:09:58;;;;;;;10.50;2.30;;;13.40;99.90;;;;;;5001388;28;20061;-62
2022/10/06 09:12:46;;;;;;;8.43;1.90;;;13.50;99.90;;;;;;4991391;28;20091;-62
2022/10/06 09:15:32;;;;;;;10.75;2.00;;;13.50;99.90;;;;;;5007099;28;20383;-62
2022/10/06 09:18:22;;;;;;;10.73;2.05;;;13.50;99.90;;;;;;5004634;28;20118;-62
2022/10/06 09:20:56;;;;;;;12.05;2.08;;;13.60;99.90;;;;;;5009007;28;20040;-64
2022/10/06 09:26:21;;;;;;;12.48;1.92;;;13.60;99.90;;;;;;4991929;28;20053;-62
2022/10/06 09:28:50;;;;;;;10.80;1.85;;;13.70;99.90;;;;;;4993591;28;20337;-62
2022/10/06 09:31:20;;;;;;;9.23;2.20;;;13.80;99.90;;;;;;5008773;28;20448;-64
2022/10/06 09:33:47;;;;;;;10.93;1.95;;;13.80;99.90;;;;;;5005317;28;20037;-64
2022/10/06 09:36:13;;;;;;;11.18;1.90;;;13.90;99.90;;;;;;5005000;28;20401;-62
2022/10/06 09:38:48;;;;;;;13.18;2.13;;;13.90;99.90;;;;;;4990708;28;20100;-62
2022/10/06 09:41:15;;;;;;;10.02;1.90;;;14.00;99.90;;;;;;5006683;28;20038;-62
2022/10/06 09:43:51;;;;;;;9.15;2.08;;;14.00;99.90;;;;;;5005212;28;20041;-62
2022/10/06 09:46:27;;;;;;;10.40;2.05;;;14.10;99.90;;;;;;4994941;28;20053;-62
2022/10/06 09:49:23;;;;;;;8.95;1.75;;;14.10;99.90;;;;;;4996506;28;20038;-62
2022/10/06 09:52:14;;;;;;;14.93;2.03;;;14.20;99.90;;;;;;4990066;28;20049;-62
2022/10/06 09:54:42;;;;;;;10.55;2.20;;;14.30;99.90;;;;;;4993313;28;20356;-62
2022/10/06 09:57:25;;;;;;;13.98;2.55;;;14.40;99.90;;;;;;5006207;28;20125;-62
2022/10/06 09:59:51;;;;;;;14.25;3.25;;;14.50;99.90;;;;;;4992947;28;20042;-63
2022/10/06 10:02:35;;;;;;;12.32;2.60;;;14.60;99.90;;;;;;5001644;28;20472;-62
2022/10/06 10:05:05;;;;;;;8.55;2.55;;;14.60;99.90;;;;;;4999695;28;20379;-63
2022/10/06 10:07:34;;;;;;;12.73;2.15;;;14.60;99.90;;;;;;4989439;28;20112;-65
2022/10/06 10:10:19;;;;;;;11.48;2.45;;;14.70;99.90;;;;;;5006798;28;20905;-62
2022/10/06 10:12:51;;;;;;;13.27;2.50;;;14.70;99.90;;;;;;5005579;28;20715;-63
2022/10/06 10:15:17;;;;;;;;;;;14.70;99.90;;;;;;5001717;28;20038;-62
2022/10/06 10:17:50;;;;;;;6.82;1.92;;;14.70;99.90;;;;;;4984946;28;20453;-62
2022/10/06 10:20:24;;;;;;;6.75;2.00;;;14.80;99.90;;;;;;4997297;28;20031;-63
2022/10/06 10:22:58;;;;;;;8.88;2.35;;;14.80;99.90;;;;;;4997616;28;20437;-63
2022/10/06 10:25:39;;;;;;;10.10;1.90;;;14.80;99.90;;;;;;4997009;28;20044;-63
2022/10/06 10:28:13;;;;;;;10.45;2.35;;;14.80;99.90;;;;;;4999734;28;20857;-63
2022/10/06 10:30:55;;;;;;;11.75;1.95;;;14.80;99.90;;;;;;4999647;28;20100;-63
2022/10/06 10:33:40;;;;;;;10.73;2.38;;;14.90;99.90;;;;;;4999192;28;20049;-63
2022/10/06 10:36:09;;;;;;;7.85;2.20;;;15.00;99.90;;;;;;4982948;28;20108;-64
2022/10/06 10:38:39;;;;;;;9.40;2.22;;;15.10;99.90;;;;;;4998168;28;20038;-63
2022/10/06 10:41:10;;;;;;;6.90;1.80;;;15.20;99.90;;;;;;4979371;28;20038;-63
2022/10/06 10:43:52;;;;;;;7.35;2.00;;;15.40;99.90;;;;;;4998404;28;20676;-65
2022/10/06 10:46:42;;;;;;;8.23;1.95;;;15.60;99.90;;;;;;4997853;28;20041;-63
2022/10/06 10:49:28;;;;;;;11.25;2.30;;;15.70;99.90;;;;;;5000445;28;20502;-64
2022/10/06 10:52:14;;;;;;;5.93;1.75;;;15.70;99.90;;;;;;4997364;28;20044;-63
2022/10/06 10:55:26;;;;;;;8.35;1.88;;;15.70;99.90;;;;;;5001333;28;20038;-64
2022/10/06 10:57:55;;;;;;;6.03;1.55;;;15.60;99.90;;;;;;4984224;28;20077;-63
2022/10/06 11:00:26;;;;;;;5.50;1.55;;;15.60;99.90;;;;;;5001430;28;20040;-63
2022/10/06 11:02:55;;;;;;;10.07;1.73;;;15.50;99.90;;;;;;5000937;28;20042;-65
2022/10/06 11:05:44;;;;;;;10.98;2.03;;;15.60;99.90;;;;;;5000356;28;20273;-65
2022/10/06 11:08:23;;;;;;;6.60;1.85;;;15.70;99.90;;;;;;4992632;28;20039;-63
2022/10/06 11:11:02;;;;;;;9.18;2.17;;;15.80;99.90;;;;;;4995662;28;20038;-63
2022/10/06 11:13:39;;;;;;;10.88;2.40;;;15.90;99.90;;;;;;4976157;28;20666;-65
2022/10/06 11:16:21;;;;;;;9.75;2.30;;;15.90;99.90;;;;;;4995125;28;20395;-64
2022/10/06 11:19:08;;;;;;;10.10;2.50;;;16.00;99.90;;;;;;4995614;28;20048;-65
2022/10/06 11:21:39;;;;;;;7.63;1.75;;;16.00;99.90;;;;;;4994958;28;20046;-63
2022/10/06 11:24:17;;;;;;;8.27;1.67;;;16.20;99.90;;;;;;4991508;28;20038;-64
2022/10/06 11:27:15;;;;;;;6.20;1.35;;;16.30;99.90;;;;;;4989145;28;20038;-65
2022/10/06 11:30:01;;;;;;;7.60;1.60;;;16.40;99.90;;;;;;4987794;28;20507;-65
2022/10/06 11:32:34;;;;;;;6.68;1.35;;;16.50;99.90;;;;;;4988253;28;20045;-63
2022/10/06 11:35:00;;;;;;;6.30;1.63;;;16.50;99.90;;;;;;5004809;28;20033;-63
2022/10/06 11:37:36;;;;;;;6.85;1.50;;;16.40;99.90;;;;;;5003189;28;20041;-63
2022/10/06 11:40:11;;;;;;;6.20;1.48;;;16.20;99.90;;;;;;5000939;28;20057;-63
2022/10/06 11:43:06;;;;;;;6.22;1.52;;;16.20;99.90;;;;;;5001824;28;20467;-62
2022/10/06 11:46:04;;;;;;;7.63;1.80;;;16.00;99.90;;;;;;4993646;28;20155;-65
2022/10/06 11:48:31;;;;;;;7.70;1.40;;;16.00;99.90;;;;;;4999252;28;20109;-65
2022/10/06 11:51:16;;;;;;;6.85;1.50;;;16.00;99.90;;;;;;4999539;28;20049;-62
2022/10/06 11:53:42;;;;;;;8.68;1.73;;;16.10;99.90;;;;;;5004533;28;20074;-63
2022/10/06 11:56:14;;;;;;;10.30;1.50;;;16.20;99.90;;;;;;4998211;28;20459;-64
2022/10/06 11:58:55;;;;;;;9.07;1.42;;;16.30;99.90;;;;;;4999099;28;20722;-62
2022/10/06 12:01:29;;;;;;;7.38;2.10;;;16.50;99.90;;;;;;5001148;28;20394;-63
2022/10/06 12:04:07;;;;;;;9.82;1.73;;;16.50;99.90;;;;;;4982892;28;20057;-63
2022/10/06 12:06:44;;;;;;;4.93;1.25;;;16.50;99.90;;;;;;5002312;28;20115;-64
2022/10/06 12:09:29;;;;;;;7.03;1.30;;;16.50;99.90;;;;;;5000669;28;20115;-63
2022/10/06 12:12:00;;;;;;;7.05;1.23;;;16.50;99.90;;;;;;4994383;28;20061;-64
2022/10/06 12:14:31;;;;;;;6.88;1.58;;;16.60;99.90;;;;;;4984996;28;20053;-66
2022/10/06 12:17:12;;;;;;;6.70;1.13;;;16.70;99.90;;;;;;5002737;28;20034;-65
2022/10/06 12:20:10;;;;;;;7.53;1.77;;;16.80;99.90;;;;;;5000504;28;20038;-65
2022/10/06 12:22:47;;;;;;;6.82;1.40;;;16.90;99.90;;;;;;4985360;28;20038;-65
2022/10/06 12:25:42;;;;;;;9.93;1.67;;;16.90;99.90;;;;;;4999759;28;20455;-64
2022/10/06 12:28:35;;;;;;;7.03;1.42;;;16.90;99.00;;;;;;5001892;28;20290;-62
2022/10/06 12:31:01;;;;;;;7.18;1.52;;;17.00;99.80;;;;;;4983148;28;20042;-63
2022/10/06 12:33:41;;;;;;;3.65;1.10;;;17.00;99.20;;;;;;4988493;28;20120;-64
2022/10/06 12:36:24;;;;;;;8.13;1.40;;;17.10;98.50;;;;;;4998337;28;20380;-63
2022/10/06 12:39:22;;;;;;;9.55;2.10;;;17.00;99.60;;;;;;4975444;28;20045;-63
2022/10/06 12:42:05;;;;;;;6.40;1.50;;;17.10;99.20;;;;;;5000013;28;20111;-63
2022/10/06 12:44:38;;;;;;;6.43;1.38;;;17.10;98.50;;;;;;5000697;28;20044;-62
2022/10/06 12:47:12;;;;;;;8.07;1.77;;;17.20;96.00;;;;;;4984562;28;20074;-65
2022/10/06 12:50:06;;;;;;;10.85;1.55;;;17.20;96.40;;;;;;4998218;28;20042;-65
2022/10/06 12:52:37;;;;;;;4.75;1.48;;;17.20;96.40;;;;;;4968564;28;20660;-65
2022/10/06 12:55:44;;;;;;;4.38;1.13;;;17.00;96.80;;;;;;4994884;28;20088;-65
2022/10/06 12:58:27;;;;;;;6.50;1.40;;;16.90;97.90;;;;;;4998947;28;20030;-66
2022/10/06 13:00:58;;;;;;;4.80;1.38;;;17.00;98.90;;;;;;4979414;28;20161;-63
2022/10/06 13:03:24;;;;;;;6.13;1.33;;;17.10;99.00;;;;;;5000722;28;20049;-63
2022/10/06 13:05:54;;;;;;;11.70;1.42;;;17.20;97.90;;;;;;4977049;28;20507;-65
2022/10/06 13:08:28;;;;;;;7.90;1.50;;;17.20;97.10;;;;;;4992296;28;20060;-63
2022/10/06 13:11:17;;;;;;;9.00;1.50;;;17.20;96.70;;;;;;4999721;28;20390;-64
2022/10/06 13:13:52;;;;;;;6.53;1.40;;;17.20;97.10;;;;;;4994520;28;20035;-65
2022/10/06 13:16:22;;;;;;;6.70;1.30;;;17.20;97.20;;;;;;4988518;28;20479;-66
2022/10/06 13:18:53;;;;;;;6.22;1.63;;;17.30;97.80;;;;;;4997257;28;20033;-67